sensor_id;sensor_type;location;lat;lon;timestamp;noise_LAeq;noise_LA_min;noise_LA_max;noise_LA01;noise_LA95
67398;Laerm;57728;50.448;18.824;2023-09-19T00:00:29;33.53;32.44;34.99;;
67398;Laerm;57728;50.448;18.824;2023-09-19T00:02:31;33.53;32.51;36.61;;
67398;Laerm;57728;50.448;18.824;2023-09-19T00:04:33;33.51;32.35;35.01;;
67398;Laerm;57728;50.448;18.824;2023-09-19T00:06:38;33.50;32.49;34.69;;
67398;Laerm;57728;50.448;18.824;2023-09-19T00:08:41;33.53;32.44;35.24;;
67398;Laerm;57728;50.448;18.824;2023-09-19T00:10:45;33.51;32.39;34.61;;
67398;Laerm;57728;50.448;18.824;2023-09-19T00:12:46;33.49;32.55;34.72;;
67398;Laerm;57728;50.448;18.824;2023-09-19T00:14:47;33.51;32.37;34.75;;
67398;Laerm;57728;50.448;18.824;2023-09-19T00:16:49;33.52;32.32;34.52;;
67398;Laerm;57728;50.448;18.824;2023-09-19T00:18:50;33.56;32.47;34.93;;
67398;Laerm;57728;50.448;18.824;2023-09-19T00:20:52;33.52;32.33;34.56;;
67398;Laerm;57728;50.448;18.824;2023-09-19T00:22:53;33.51;32.46;34.59;;
67398;Laerm;57728;50.448;18.824;2023-09-19T00:24:55;33.53;32.40;34.50;;
67398;Laerm;57728;50.448;18.824;2023-09-19T00:26:57;33.50;32.50;34.64;;
67398;Laerm;57728;50.448;18.824;2023-09-19T00:29:00;33.51;32.22;34.39;;
67398;Laerm;57728;50.448;18.824;2023-09-19T00:31:09;33.52;32.31;34.91;;
67398;Laerm;57728;50.448;18.824;2023-09-19T00:33:12;33.49;32.47;35.27;;
67398;Laerm;57728;50.448;18.824;2023-09-19T00:35:17;33.53;32.39;35.77;;
67398;Laerm;57728;50.448;18.824;2023-09-19T00:37:18;33.48;32.37;34.48;;
67398;Laerm;57728;50.448;18.824;2023-09-19T00:39:20;33.49;32.45;35.17;;
67398;Laerm;57728;50.448;18.824;2023-09-19T00:41:21;33.49;32.27;34.89;;
67398;Laerm;57728;50.448;18.824;2023-09-19T00:43:23;33.46;32.48;34.54;;
67398;Laerm;57728;50.448;18.824;2023-09-19T00:45:26;33.48;32.30;34.62;;
67398;Laerm;57728;50.448;18.824;2023-09-19T00:47:28;33.49;32.37;34.52;;
67398;Laerm;57728;50.448;18.824;2023-09-19T00:49:32;33.48;32.31;34.61;;
67398;Laerm;57728;50.448;18.824;2023-09-19T00:51:34;33.48;32.45;35.20;;
67398;Laerm;57728;50.448;18.824;2023-09-19T00:53:38;33.50;32.31;34.54;;
67398;Laerm;57728;50.448;18.824;2023-09-19T00:55:40;33.50;32.31;35.73;;
67398;Laerm;57728;50.448;18.824;2023-09-19T00:57:44;33.47;32.33;34.52;;
67398;Laerm;57728;50.448;18.824;2023-09-19T00:59:53;33.48;32.28;35.17;;
67398;Laerm;57728;50.448;18.824;2023-09-19T01:01:56;33.51;32.51;39.10;;
67398;Laerm;57728;50.448;18.824;2023-09-19T01:03:59;33.48;32.34;34.69;;
67398;Laerm;57728;50.448;18.824;2023-09-19T01:06:00;33.49;32.37;34.58;;
67398;Laerm;57728;50.448;18.824;2023-09-19T01:08:03;33.47;32.51;34.74;;
67398;Laerm;57728;50.448;18.824;2023-09-19T01:10:17;33.48;32.39;34.40;;
67398;Laerm;57728;50.448;18.824;2023-09-19T01:13:05;33.51;32.27;35.51;;
67398;Laerm;57728;50.448;18.824;2023-09-19T01:15:21;33.53;32.15;35.55;;
67398;Laerm;57728;50.448;18.824;2023-09-19T01:17:34;33.56;32.42;38.18;;
67398;Laerm;57728;50.448;18.824;2023-09-19T01:20:03;33.68;32.45;39.07;;
67398;Laerm;57728;50.448;18.824;2023-09-19T01:29:44;33.56;32.37;39.11;;
67398;Laerm;57728;50.448;18.824;2023-09-19T01:31:49;33.49;32.47;34.91;;
67398;Laerm;57728;50.448;18.824;2023-09-19T01:34:02;33.50;32.43;35.21;;
67398;Laerm;57728;50.448;18.824;2023-09-19T01:36:05;33.52;32.44;35.09;;
67398;Laerm;57728;50.448;18.824;2023-09-19T01:38:06;33.49;32.39;34.51;;
67398;Laerm;57728;50.448;18.824;2023-09-19T01:40:20;33.50;32.36;34.82;;
67398;Laerm;57728;50.448;18.824;2023-09-19T01:42:43;33.51;32.43;34.58;;
67398;Laerm;57728;50.448;18.824;2023-09-19T01:45:03;33.51;32.55;34.54;;
67398;Laerm;57728;50.448;18.824;2023-09-19T01:47:46;34.34;32.35;39.47;;
67398;Laerm;57728;50.448;18.824;2023-09-19T01:50:30;33.63;32.44;39.70;;
67398;Laerm;57728;50.448;18.824;2023-09-19T01:52:45;33.67;32.41;49.10;;
67398;Laerm;57728;50.448;18.824;2023-09-19T01:54:56;33.67;32.40;44.19;;
67398;Laerm;57728;50.448;18.824;2023-09-19T01:57:38;33.58;32.41;37.06;;
67398;Laerm;57728;50.448;18.824;2023-09-19T02:00:01;33.58;32.35;36.38;;
67398;Laerm;57728;50.448;18.824;2023-09-19T02:02:16;33.64;32.38;42.62;;
67398;Laerm;57728;50.448;18.824;2023-09-19T02:04:18;33.74;32.61;39.64;;
67398;Laerm;57728;50.448;18.824;2023-09-19T02:06:20;33.61;32.49;42.40;;
67398;Laerm;57728;50.448;18.824;2023-09-19T02:08:23;33.77;32.45;39.78;;
67398;Laerm;57728;50.448;18.824;2023-09-19T02:10:27;33.67;32.55;40.53;;
67398;Laerm;57728;50.448;18.824;2023-09-19T02:12:29;33.62;32.47;38.61;;
67398;Laerm;57728;50.448;18.824;2023-09-19T02:14:31;33.53;32.38;34.97;;
67398;Laerm;57728;50.448;18.824;2023-09-19T02:16:32;33.54;32.29;38.41;;
67398;Laerm;57728;50.448;18.824;2023-09-19T02:18:34;33.52;32.47;37.23;;
67398;Laerm;57728;50.448;18.824;2023-09-19T02:20:36;33.53;32.36;35.24;;
67398;Laerm;57728;50.448;18.824;2023-09-19T02:22:38;33.84;32.25;38.59;;
67398;Laerm;57728;50.448;18.824;2023-09-19T02:24:40;33.62;32.56;36.14;;
67398;Laerm;57728;50.448;18.824;2023-09-19T02:26:41;33.85;32.47;43.02;;
67398;Laerm;57728;50.448;18.824;2023-09-19T02:28:43;33.81;32.55;45.26;;
67398;Laerm;57728;50.448;18.824;2023-09-19T02:30:48;33.63;32.55;41.30;;
67398;Laerm;57728;50.448;18.824;2023-09-19T02:32:51;33.62;32.44;42.17;;
67398;Laerm;57728;50.448;18.824;2023-09-19T02:34:52;33.83;32.44;46.47;;
67398;Laerm;57728;50.448;18.824;2023-09-19T02:36:55;33.73;32.41;47.47;;
67398;Laerm;57728;50.448;18.824;2023-09-19T02:38:57;33.54;32.55;34.65;;
67398;Laerm;57728;50.448;18.824;2023-09-19T02:40:59;33.72;32.43;37.98;;
67398;Laerm;57728;50.448;18.824;2023-09-19T02:43:01;33.55;32.49;34.50;;
67398;Laerm;57728;50.448;18.824;2023-09-19T02:45:03;33.56;32.47;34.68;;
67398;Laerm;57728;50.448;18.824;2023-09-19T02:47:07;33.54;32.35;34.59;;
67398;Laerm;57728;50.448;18.824;2023-09-19T02:49:09;33.63;32.29;36.58;;
67398;Laerm;57728;50.448;18.824;2023-09-19T02:51:10;33.54;32.58;37.39;;
67398;Laerm;57728;50.448;18.824;2023-09-19T02:53:11;33.62;32.55;35.40;;
67398;Laerm;57728;50.448;18.824;2023-09-19T02:55:18;33.70;32.47;38.36;;
67398;Laerm;57728;50.448;18.824;2023-09-19T02:57:20;33.57;32.50;34.73;;
67398;Laerm;57728;50.448;18.824;2023-09-19T02:59:21;33.60;32.50;34.95;;
67398;Laerm;57728;50.448;18.824;2023-09-19T03:01:23;33.62;32.62;42.56;;
67398;Laerm;57728;50.448;18.824;2023-09-19T03:03:24;33.63;32.45;35.85;;
67398;Laerm;57728;50.448;18.824;2023-09-19T03:05:26;33.59;32.41;34.50;;
67398;Laerm;57728;50.448;18.824;2023-09-19T03:07:28;33.57;32.47;34.58;;
67398;Laerm;57728;50.448;18.824;2023-09-19T03:09:30;33.63;32.20;36.97;;
67398;Laerm;57728;50.448;18.824;2023-09-19T03:11:32;33.62;32.48;34.65;;
67398;Laerm;57728;50.448;18.824;2023-09-19T03:13:35;33.64;32.55;35.09;;
67398;Laerm;57728;50.448;18.824;2023-09-19T03:15:43;33.60;32.41;37.79;;
67398;Laerm;57728;50.448;18.824;2023-09-19T03:17:49;33.73;32.37;38.20;;
67398;Laerm;57728;50.448;18.824;2023-09-19T03:19:56;33.73;32.48;38.06;;
67398;Laerm;57728;50.448;18.824;2023-09-19T03:21:58;33.82;32.57;39.68;;
67398;Laerm;57728;50.448;18.824;2023-09-19T03:23:59;33.89;32.55;44.28;;
67398;Laerm;57728;50.448;18.824;2023-09-19T03:26:01;33.80;32.69;43.17;;
67398;Laerm;57728;50.448;18.824;2023-09-19T03:28:04;33.69;32.63;39.83;;
67398;Laerm;57728;50.448;18.824;2023-09-19T03:30:08;33.76;32.65;37.89;;
67398;Laerm;57728;50.448;18.824;2023-09-19T03:32:11;33.72;32.36;39.78;;
67398;Laerm;57728;50.448;18.824;2023-09-19T03:34:12;33.83;32.44;45.27;;
67398;Laerm;57728;50.448;18.824;2023-09-19T03:36:13;33.85;32.73;41.31;;
67398;Laerm;57728;50.448;18.824;2023-09-19T03:38:16;33.85;32.43;42.73;;
67398;Laerm;57728;50.448;18.824;2023-09-19T03:40:17;33.83;32.59;40.56;;
67398;Laerm;57728;50.448;18.824;2023-09-19T03:42:21;33.63;32.33;35.65;;
67398;Laerm;57728;50.448;18.824;2023-09-19T03:44:28;33.80;32.37;37.96;;
67398;Laerm;57728;50.448;18.824;2023-09-19T03:46:29;33.64;32.48;34.77;;
67398;Laerm;57728;50.448;18.824;2023-09-19T03:48:31;33.69;32.45;36.43;;
67398;Laerm;57728;50.448;18.824;2023-09-19T03:50:33;33.66;32.08;35.78;;
67398;Laerm;57728;50.448;18.824;2023-09-19T03:52:34;33.63;32.59;35.83;;
67398;Laerm;57728;50.448;18.824;2023-09-19T03:54:36;33.82;32.73;38.48;;
67398;Laerm;57728;50.448;18.824;2023-09-19T03:56:37;33.65;32.51;35.21;;
67398;Laerm;57728;50.448;18.824;2023-09-19T03:58:39;33.74;32.52;36.66;;
67398;Laerm;57728;50.448;18.824;2023-09-19T04:00:40;33.77;32.49;38.64;;
67398;Laerm;57728;50.448;18.824;2023-09-19T04:02:42;33.67;32.67;37.30;;
67398;Laerm;57728;50.448;18.824;2023-09-19T04:04:43;33.94;32.61;36.96;;
67398;Laerm;57728;50.448;18.824;2023-09-19T04:06:44;34.03;32.50;40.75;;
67398;Laerm;57728;50.448;18.824;2023-09-19T04:08:46;34.24;32.42;41.57;;
67398;Laerm;57728;50.448;18.824;2023-09-19T04:10:48;33.75;32.43;35.95;;
67398;Laerm;57728;50.448;18.824;2023-09-19T04:12:57;33.92;32.76;36.76;;
67398;Laerm;57728;50.448;18.824;2023-09-19T04:14:59;33.99;32.71;37.23;;
67398;Laerm;57728;50.448;18.824;2023-09-19T04:17:00;33.93;32.79;37.69;;
67398;Laerm;57728;50.448;18.824;2023-09-19T04:19:02;34.25;32.64;37.99;;
67398;Laerm;57728;50.448;18.824;2023-09-19T04:21:05;34.77;32.85;39.11;;
67398;Laerm;57728;50.448;18.824;2023-09-19T04:23:06;34.22;32.81;41.25;;
67398;Laerm;57728;50.448;18.824;2023-09-19T04:25:09;34.65;33.15;38.25;;
67398;Laerm;57728;50.448;18.824;2023-09-19T04:27:11;35.11;33.23;42.32;;
67398;Laerm;57728;50.448;18.824;2023-09-19T04:29:15;35.07;33.19;42.60;;
67398;Laerm;57728;50.448;18.824;2023-09-19T04:31:16;34.31;33.04;37.97;;
67398;Laerm;57728;50.448;18.824;2023-09-19T04:33:20;34.29;33.10;37.46;;
67398;Laerm;57728;50.448;18.824;2023-09-19T04:35:21;34.45;33.17;39.97;;
67398;Laerm;57728;50.448;18.824;2023-09-19T04:37:23;36.03;33.28;41.38;;
67398;Laerm;57728;50.448;18.824;2023-09-19T04:39:24;38.38;33.25;51.21;;
67398;Laerm;57728;50.448;18.824;2023-09-19T04:41:26;34.44;33.05;43.49;;
67398;Laerm;57728;50.448;18.824;2023-09-19T04:43:29;34.90;33.30;46.05;;
67398;Laerm;57728;50.448;18.824;2023-09-19T04:45:32;34.50;33.23;38.26;;
67398;Laerm;57728;50.448;18.824;2023-09-19T04:47:33;34.60;33.14;40.41;;
67398;Laerm;57728;50.448;18.824;2023-09-19T04:49:35;34.68;33.23;41.04;;
67398;Laerm;57728;50.448;18.824;2023-09-19T04:51:37;35.09;33.11;50.77;;
67398;Laerm;57728;50.448;18.824;2023-09-19T04:53:38;35.49;33.01;53.86;;
67398;Laerm;57728;50.448;18.824;2023-09-19T04:55:39;35.15;33.14;46.59;;
67398;Laerm;57728;50.448;18.824;2023-09-19T04:57:41;35.14;33.25;49.76;;
67398;Laerm;57728;50.448;18.824;2023-09-19T04:59:42;35.31;33.33;52.68;;
67398;Laerm;57728;50.448;18.824;2023-09-19T05:01:43;34.46;33.14;39.52;;
67398;Laerm;57728;50.448;18.824;2023-09-19T05:03:45;35.36;33.17;51.47;;
67398;Laerm;57728;50.448;18.824;2023-09-19T05:05:46;34.85;33.16;51.20;;
67398;Laerm;57728;50.448;18.824;2023-09-19T05:07:47;34.53;33.02;39.24;;
67398;Laerm;57728;50.448;18.824;2023-09-19T05:09:49;34.58;32.99;44.30;;
67398;Laerm;57728;50.448;18.824;2023-09-19T05:11:50;34.74;33.18;46.61;;
67398;Laerm;57728;50.448;18.824;2023-09-19T05:13:52;34.21;33.00;39.05;;
67398;Laerm;57728;50.448;18.824;2023-09-19T05:16:00;34.85;33.16;40.43;;
67398;Laerm;57728;50.448;18.824;2023-09-19T05:18:04;34.75;32.96;41.81;;
67398;Laerm;57728;50.448;18.824;2023-09-19T05:20:07;34.56;33.24;39.67;;
67398;Laerm;57728;50.448;18.824;2023-09-19T05:22:18;34.55;33.12;38.50;;
67398;Laerm;57728;50.448;18.824;2023-09-19T05:24:19;34.26;33.01;41.73;;
67398;Laerm;57728;50.448;18.824;2023-09-19T05:26:21;34.26;33.13;39.13;;
67398;Laerm;57728;50.448;18.824;2023-09-19T05:28:23;34.45;33.01;40.29;;
67398;Laerm;57728;50.448;18.824;2023-09-19T05:30:27;34.50;33.07;38.03;;
67398;Laerm;57728;50.448;18.824;2023-09-19T05:32:30;34.74;32.84;39.47;;
67398;Laerm;57728;50.448;18.824;2023-09-19T05:34:31;34.43;33.02;39.65;;
67398;Laerm;57728;50.448;18.824;2023-09-19T05:36:33;34.40;32.99;37.23;;
67398;Laerm;57728;50.448;18.824;2023-09-19T05:38:34;34.77;32.90;46.17;;
67398;Laerm;57728;50.448;18.824;2023-09-19T05:40:36;34.37;32.91;38.09;;
67398;Laerm;57728;50.448;18.824;2023-09-19T05:42:39;34.87;33.17;39.99;;
67398;Laerm;57728;50.448;18.824;2023-09-19T05:44:42;36.02;33.11;47.50;;
67398;Laerm;57728;50.448;18.824;2023-09-19T05:46:44;34.77;33.24;42.08;;
67398;Laerm;57728;50.448;18.824;2023-09-19T05:48:46;34.62;33.16;39.37;;
67398;Laerm;57728;50.448;18.824;2023-09-19T05:50:48;34.66;32.86;39.75;;
67398;Laerm;57728;50.448;18.824;2023-09-19T05:52:54;34.94;33.22;40.52;;
67398;Laerm;57728;50.448;18.824;2023-09-19T05:54:56;34.70;33.21;38.41;;
67398;Laerm;57728;50.448;18.824;2023-09-19T05:56:58;34.78;33.29;40.22;;
67398;Laerm;57728;50.448;18.824;2023-09-19T05:59:00;35.37;33.39;44.76;;
67398;Laerm;57728;50.448;18.824;2023-09-19T06:01:01;34.61;33.16;37.00;;
67398;Laerm;57728;50.448;18.824;2023-09-19T06:03:02;34.76;33.24;40.58;;
67398;Laerm;57728;50.448;18.824;2023-09-19T06:05:06;35.07;33.21;44.46;;
67398;Laerm;57728;50.448;18.824;2023-09-19T06:07:07;34.55;33.16;40.18;;
67398;Laerm;57728;50.448;18.824;2023-09-19T06:09:08;34.44;33.25;41.17;;
67398;Laerm;57728;50.448;18.824;2023-09-19T06:11:10;34.48;33.19;37.88;;
67398;Laerm;57728;50.448;18.824;2023-09-19T06:13:12;34.92;33.10;52.30;;
67398;Laerm;57728;50.448;18.824;2023-09-19T06:15:14;38.84;33.23;61.68;;
67398;Laerm;57728;50.448;18.824;2023-09-19T06:17:17;34.71;33.20;44.30;;
67398;Laerm;57728;50.448;18.824;2023-09-19T06:19:20;34.67;33.20;44.40;;
67398;Laerm;57728;50.448;18.824;2023-09-19T06:21:23;34.21;33.10;37.93;;
67398;Laerm;57728;50.448;18.824;2023-09-19T06:23:25;34.34;33.13;37.69;;
67398;Laerm;57728;50.448;18.824;2023-09-19T06:25:29;34.69;33.20;45.96;;
67398;Laerm;57728;50.448;18.824;2023-09-19T06:27:31;34.54;33.08;42.37;;
67398;Laerm;57728;50.448;18.824;2023-09-19T06:29:32;34.57;33.17;39.01;;
67398;Laerm;57728;50.448;18.824;2023-09-19T06:31:34;34.35;33.03;39.26;;
67398;Laerm;57728;50.448;18.824;2023-09-19T06:33:37;34.66;33.20;46.39;;
67398;Laerm;57728;50.448;18.824;2023-09-19T06:35:42;34.56;32.98;42.56;;
67398;Laerm;57728;50.448;18.824;2023-09-19T06:37:47;34.37;32.94;42.27;;
67398;Laerm;57728;50.448;18.824;2023-09-19T06:39:48;34.38;33.02;42.48;;
67398;Laerm;57728;50.448;18.824;2023-09-19T06:41:52;35.10;33.06;57.16;;
67398;Laerm;57728;50.448;18.824;2023-09-19T06:43:56;34.81;32.77;50.18;;
67398;Laerm;57728;50.448;18.824;2023-09-19T06:45:58;34.41;32.91;44.39;;
67398;Laerm;57728;50.448;18.824;2023-09-19T06:48:01;34.31;32.98;37.94;;
67398;Laerm;57728;50.448;18.824;2023-09-19T06:50:04;34.33;32.90;40.91;;
67398;Laerm;57728;50.448;18.824;2023-09-19T06:52:06;34.42;33.00;43.71;;
67398;Laerm;57728;50.448;18.824;2023-09-19T06:54:08;34.12;32.98;40.19;;
67398;Laerm;57728;50.448;18.824;2023-09-19T06:56:09;34.24;32.99;38.15;;
67398;Laerm;57728;50.448;18.824;2023-09-19T06:58:11;34.41;33.09;38.84;;
67398;Laerm;57728;50.448;18.824;2023-09-19T07:00:16;34.44;32.98;40.07;;
67398;Laerm;57728;50.448;18.824;2023-09-19T07:02:19;34.49;32.97;47.56;;
67398;Laerm;57728;50.448;18.824;2023-09-19T07:04:24;34.34;32.90;40.41;;
67398;Laerm;57728;50.448;18.824;2023-09-19T07:06:26;34.62;33.05;54.55;;
67398;Laerm;57728;50.448;18.824;2023-09-19T07:08:27;34.85;33.06;45.19;;
67398;Laerm;57728;50.448;18.824;2023-09-19T07:10:30;34.52;33.01;41.01;;
67398;Laerm;57728;50.448;18.824;2023-09-19T07:12:32;34.78;33.08;43.56;;
67398;Laerm;57728;50.448;18.824;2023-09-19T07:14:36;34.39;33.18;45.29;;
67398;Laerm;57728;50.448;18.824;2023-09-19T07:16:40;34.55;32.87;50.66;;
67398;Laerm;57728;50.448;18.824;2023-09-19T07:18:46;34.68;33.05;46.19;;
67398;Laerm;57728;50.448;18.824;2023-09-19T07:20:47;34.61;33.10;43.15;;
67398;Laerm;57728;50.448;18.824;2023-09-19T07:22:51;34.49;32.94;43.66;;
67398;Laerm;57728;50.448;18.824;2023-09-19T07:24:53;34.31;33.16;40.70;;
67398;Laerm;57728;50.448;18.824;2023-09-19T07:26:54;35.07;33.14;46.48;;
67398;Laerm;57728;50.448;18.824;2023-09-19T07:28:55;34.41;32.95;39.87;;
67398;Laerm;57728;50.448;18.824;2023-09-19T07:31:02;34.44;32.99;42.26;;
67398;Laerm;57728;50.448;18.824;2023-09-19T07:33:06;34.58;33.03;42.70;;
67398;Laerm;57728;50.448;18.824;2023-09-19T07:35:07;34.27;33.13;38.05;;
67398;Laerm;57728;50.448;18.824;2023-09-19T07:37:09;34.26;33.04;38.29;;
67398;Laerm;57728;50.448;18.824;2023-09-19T07:39:10;34.66;33.04;45.37;;
67398;Laerm;57728;50.448;18.824;2023-09-19T07:41:12;34.27;32.74;41.44;;
67398;Laerm;57728;50.448;18.824;2023-09-19T07:43:14;34.04;32.90;35.68;;
67398;Laerm;57728;50.448;18.824;2023-09-19T07:45:15;34.55;32.97;47.63;;
67398;Laerm;57728;50.448;18.824;2023-09-19T07:47:17;34.18;32.82;38.88;;
67398;Laerm;57728;50.448;18.824;2023-09-19T07:49:19;34.29;33.08;43.37;;
67398;Laerm;57728;50.448;18.824;2023-09-19T07:51:20;34.31;32.88;38.85;;
67398;Laerm;57728;50.448;18.824;2023-09-19T07:53:21;34.39;33.13;39.37;;
67398;Laerm;57728;50.448;18.824;2023-09-19T07:55:24;34.33;33.21;38.39;;
67398;Laerm;57728;50.448;18.824;2023-09-19T07:57:26;34.43;33.27;40.38;;
67398;Laerm;57728;50.448;18.824;2023-09-19T07:59:27;34.60;33.08;39.83;;
67398;Laerm;57728;50.448;18.824;2023-09-19T08:01:30;34.35;33.07;37.61;;
67398;Laerm;57728;50.448;18.824;2023-09-19T08:03:31;34.28;33.17;38.05;;
67398;Laerm;57728;50.448;18.824;2023-09-19T08:05:32;34.62;33.18;43.35;;
67398;Laerm;57728;50.448;18.824;2023-09-19T08:07:41;34.41;32.94;45.25;;
67398;Laerm;57728;50.448;18.824;2023-09-19T08:09:42;34.23;32.97;39.74;;
67398;Laerm;57728;50.448;18.824;2023-09-19T08:11:47;34.49;33.13;47.75;;
67398;Laerm;57728;50.448;18.824;2023-09-19T08:13:49;34.11;32.97;39.93;;
67398;Laerm;57728;50.448;18.824;2023-09-19T08:15:51;34.49;32.93;46.96;;
67398;Laerm;57728;50.448;18.824;2023-09-19T08:17:54;34.13;32.62;38.81;;
67398;Laerm;57728;50.448;18.824;2023-09-19T08:19:56;34.32;32.95;38.39;;
67398;Laerm;57728;50.448;18.824;2023-09-19T08:22:00;34.10;32.93;37.44;;
67398;Laerm;57728;50.448;18.824;2023-09-19T08:24:02;34.17;32.83;40.10;;
67398;Laerm;57728;50.448;18.824;2023-09-19T08:26:06;34.27;32.93;39.49;;
67398;Laerm;57728;50.448;18.824;2023-09-19T08:28:08;34.39;33.02;39.90;;
67398;Laerm;57728;50.448;18.824;2023-09-19T08:30:16;34.32;33.05;45.11;;
67398;Laerm;57728;50.448;18.824;2023-09-19T08:32:19;34.14;32.92;40.55;;
67398;Laerm;57728;50.448;18.824;2023-09-19T08:34:26;34.28;32.99;41.52;;
67398;Laerm;57728;50.448;18.824;2023-09-19T08:36:27;34.08;32.91;35.35;;
67398;Laerm;57728;50.448;18.824;2023-09-19T08:38:29;34.25;33.04;42.08;;
67398;Laerm;57728;50.448;18.824;2023-09-19T08:40:32;37.52;33.13;48.91;;
67398;Laerm;57728;50.448;18.824;2023-09-19T08:42:51;34.59;33.14;38.48;;
67398;Laerm;57728;50.448;18.824;2023-09-19T08:44:59;34.42;33.25;38.58;;
67398;Laerm;57728;50.448;18.824;2023-09-19T08:47:11;34.33;33.17;38.78;;
67398;Laerm;57728;50.448;18.824;2023-09-19T08:49:37;34.33;33.10;36.28;;
67398;Laerm;57728;50.448;18.824;2023-09-19T08:51:45;34.88;32.96;43.04;;
67398;Laerm;57728;50.448;18.824;2023-09-19T08:54:24;34.44;32.93;41.61;;
67398;Laerm;57728;50.448;18.824;2023-09-19T08:56:32;34.32;33.07;38.05;;
67398;Laerm;57728;50.448;18.824;2023-09-19T08:58:48;34.57;33.17;40.03;;
67398;Laerm;57728;50.448;18.824;2023-09-19T09:00:54;34.27;32.97;37.45;;
67398;Laerm;57728;50.448;18.824;2023-09-19T09:02:58;34.75;32.98;46.13;;
67398;Laerm;57728;50.448;18.824;2023-09-19T09:05:04;34.62;32.81;46.48;;
67398;Laerm;57728;50.448;18.824;2023-09-19T09:07:14;34.02;32.81;35.16;;
67398;Laerm;57728;50.448;18.824;2023-09-19T09:09:15;34.44;32.87;42.96;;
67398;Laerm;57728;50.448;18.824;2023-09-19T09:11:18;34.08;32.76;39.60;;
67398;Laerm;57728;50.448;18.824;2023-09-19T09:13:20;34.10;32.77;40.82;;
67398;Laerm;57728;50.448;18.824;2023-09-19T09:15:23;34.08;32.81;39.44;;
67398;Laerm;57728;50.448;18.824;2023-09-19T09:17:25;34.14;32.91;38.34;;
67398;Laerm;57728;50.448;18.824;2023-09-19T09:19:26;34.25;32.90;38.03;;
67398;Laerm;57728;50.448;18.824;2023-09-19T09:21:31;34.35;32.95;40.13;;
67398;Laerm;57728;50.448;18.824;2023-09-19T09:23:37;34.23;32.85;39.64;;
67398;Laerm;57728;50.448;18.824;2023-09-19T09:25:53;34.35;32.73;46.89;;
67398;Laerm;57728;50.448;18.824;2023-09-19T09:28:26;34.70;32.83;48.70;;
67398;Laerm;57728;50.448;18.824;2023-09-19T09:30:36;34.41;32.84;44.02;;
67398;Laerm;57728;50.448;18.824;2023-09-19T09:32:38;34.28;33.01;44.57;;
67398;Laerm;57728;50.448;18.824;2023-09-19T09:34:40;34.52;32.95;44.62;;
67398;Laerm;57728;50.448;18.824;2023-09-19T09:36:48;34.18;33.00;40.23;;
67398;Laerm;57728;50.448;18.824;2023-09-19T09:38:50;34.11;32.91;41.52;;
67398;Laerm;57728;50.448;18.824;2023-09-19T09:40:54;34.67;32.93;41.00;;
67398;Laerm;57728;50.448;18.824;2023-09-19T09:43:34;34.46;32.84;41.37;;
67398;Laerm;57728;50.448;18.824;2023-09-19T09:45:42;34.63;32.90;46.87;;
67398;Laerm;57728;50.448;18.824;2023-09-19T09:47:49;34.17;32.85;43.20;;
67398;Laerm;57728;50.448;18.824;2023-09-19T09:49:57;34.03;32.77;36.59;;
67398;Laerm;57728;50.448;18.824;2023-09-19T09:52:08;35.55;32.97;48.54;;
67398;Laerm;57728;50.448;18.824;2023-09-19T09:54:18;35.01;32.99;52.87;;
67398;Laerm;57728;50.448;18.824;2023-09-19T09:56:23;34.82;32.92;50.36;;
67398;Laerm;57728;50.448;18.824;2023-09-19T09:58:26;35.52;33.16;50.20;;
67398;Laerm;57728;50.448;18.824;2023-09-19T10:00:30;35.21;33.08;49.77;;
67398;Laerm;57728;50.448;18.824;2023-09-19T10:02:43;34.24;32.97;39.37;;
67398;Laerm;57728;50.448;18.824;2023-09-19T10:04:47;34.95;33.03;50.56;;
67398;Laerm;57728;50.448;18.824;2023-09-19T10:07:31;34.57;32.72;41.11;;
67398;Laerm;57728;50.448;18.824;2023-09-19T10:10:01;34.08;32.51;50.77;;
67398;Laerm;57728;50.448;18.824;2023-09-19T10:12:22;34.35;32.91;48.30;;
67398;Laerm;57728;50.448;18.824;2023-09-19T10:14:32;34.38;32.76;48.83;;
67398;Laerm;57728;50.448;18.824;2023-09-19T10:16:47;34.81;33.01;43.84;;
67398;Laerm;57728;50.448;18.824;2023-09-19T10:18:55;35.26;33.05;51.61;;
67398;Laerm;57728;50.448;18.824;2023-09-19T10:21:01;35.49;32.96;52.13;;
67398;Laerm;57728;50.448;18.824;2023-09-19T10:23:08;34.93;33.04;51.24;;
67398;Laerm;57728;50.448;18.824;2023-09-19T10:25:13;35.29;33.07;53.34;;
67398;Laerm;57728;50.448;18.824;2023-09-19T10:27:15;35.03;33.02;55.65;;
67398;Laerm;57728;50.448;18.824;2023-09-19T10:29:19;35.13;32.91;41.29;;
67398;Laerm;57728;50.448;18.824;2023-09-19T10:31:23;36.17;33.53;54.59;;
67398;Laerm;57728;50.448;18.824;2023-09-19T10:33:26;35.18;33.13;45.40;;
67398;Laerm;57728;50.448;18.824;2023-09-19T10:35:33;35.24;33.41;43.30;;
67398;Laerm;57728;50.448;18.824;2023-09-19T10:37:40;37.14;33.45;60.70;;
67398;Laerm;57728;50.448;18.824;2023-09-19T10:39:46;35.18;33.07;56.53;;
67398;Laerm;57728;50.448;18.824;2023-09-19T10:41:53;35.72;33.37;56.55;;
67398;Laerm;57728;50.448;18.824;2023-09-19T10:43:58;35.46;33.27;53.44;;
67398;Laerm;57728;50.448;18.824;2023-09-19T10:46:03;35.03;33.29;45.86;;
67398;Laerm;57728;50.448;18.824;2023-09-19T10:48:08;34.73;33.19;41.02;;
67398;Laerm;57728;50.448;18.824;2023-09-19T10:50:20;37.44;33.13;59.95;;
67398;Laerm;57728;50.448;18.824;2023-09-19T10:52:27;34.70;33.17;39.90;;
67398;Laerm;57728;50.448;18.824;2023-09-19T10:54:35;34.60;33.05;47.43;;
67398;Laerm;57728;50.448;18.824;2023-09-19T10:56:49;35.23;33.04;50.60;;
67398;Laerm;57728;50.448;18.824;2023-09-19T10:59:09;34.68;33.17;47.14;;
67398;Laerm;57728;50.448;18.824;2023-09-19T11:01:12;35.60;33.29;49.33;;
67398;Laerm;57728;50.448;18.824;2023-09-19T11:05:19;35.13;33.37;47.16;;
67398;Laerm;57728;50.448;18.824;2023-09-19T11:07:21;35.32;33.37;54.92;;
67398;Laerm;57728;50.448;18.824;2023-09-19T11:09:50;36.30;33.11;66.24;;
67398;Laerm;57728;50.448;18.824;2023-09-19T11:12:03;35.32;33.28;55.34;;
67398;Laerm;57728;50.448;18.824;2023-09-19T11:14:28;36.98;33.34;57.16;;
67398;Laerm;57728;50.448;18.824;2023-09-19T11:16:29;35.19;33.17;53.50;;
67398;Laerm;57728;50.448;18.824;2023-09-19T11:20:42;34.41;33.10;51.91;;
67398;Laerm;57728;50.448;18.824;2023-09-19T11:24:52;34.93;33.13;51.37;;
67398;Laerm;57728;50.448;18.824;2023-09-19T11:27:12;37.99;33.27;49.75;;
67398;Laerm;57728;50.448;18.824;2023-09-19T11:29:28;35.07;33.28;44.71;;
67398;Laerm;57728;50.448;18.824;2023-09-19T11:31:43;34.56;33.18;50.69;;
67398;Laerm;57728;50.448;18.824;2023-09-19T11:33:46;34.39;33.08;48.29;;
67398;Laerm;57728;50.448;18.824;2023-09-19T11:36:06;34.76;32.96;42.87;;
67398;Laerm;57728;50.448;18.824;2023-09-19T11:38:10;35.40;32.85;49.56;;
67398;Laerm;57728;50.448;18.824;2023-09-19T11:40:12;34.53;33.13;38.39;;
67398;Laerm;57728;50.448;18.824;2023-09-19T11:42:46;34.75;32.99;42.60;;
67398;Laerm;57728;50.448;18.824;2023-09-19T11:44:58;34.73;32.99;42.22;;